Latest Weather Observations for Roebourne Airport

IDW60801

Issued at 9:31 pm WST Wednesday 4 May 2016 (issued every 30 minutes, with the page automatically refreshed every 10 minutes)

About weather observations | Map of weather stations | Latest weather observations for WA | Other Formats
Station Details ID: 004090 Name: ROEBOURNE AERO Lat: -20.76 Lon: 117.16 Height: 10.7 m
Data from the previous 72 hours. | See also: Recent months at Roebourne Airport
Date/Time
WST
Temp
°C
App
Temp
°C
Dew
Point
Rel
Hum
%
Delta-T
°C
Wind Press
QNH
hPa
Press
MSL
hPa
Rain
since 9 am
mm
Dir
 
Spd
km/h
Gust
km/h
Spd
kts
Gust
kts
04/09:30pm 28.5 29.5 21.8 67 4.5 W 19 24 10 13 1011.9 1011.9 0.0
04/09:00pm 28.6 29.8 21.4 65 4.8 W 17 22 9 12 1011.7 1011.7 0.0
04/08:30pm 28.9 29.5 21.1 62 5.2 W 19 26 10 14 1011.6 1011.6 0.0
04/08:00pm 29.0 30.0 21.0 62 5.3 W 17 24 9 13 1011.1 1011.1 0.0
04/07:30pm 29.1 29.8 21.6 64 5.0 W 20 26 11 14 1011.1 1011.1 0.0
04/07:00pm 29.4 29.9 21.1 61 5.5 WNW 20 26 11 14 1010.7 1010.7 0.0
04/06:30pm 29.7 29.5 20.5 57 6.1 WNW 22 28 12 15 1010.1 1010.1 0.0
04/06:00pm 30.5 29.9 18.9 50 7.5 WNW 20 26 11 14 1009.7 1009.7 0.0
04/05:30pm 31.1 29.9 18.5 47 8.1 WNW 22 28 12 15 1009.4 1009.4 0.0
04/05:00pm 31.9 30.7 18.5 45 8.7 NW 22 28 12 15 1009.1 1009.1 0.0
04/04:30pm 32.1 31.4 19.4 47 8.3 NW 22 28 12 15 1008.9 1008.9 0.0
04/04:00pm 32.6 31.1 17.6 40 9.6 NW 22 28 12 15 1008.8 1008.8 0.0
04/03:30pm 34.0 32.1 16.8 35 11.0 NNW 22 28 12 15 1008.6 1008.6 0.0
04/03:00pm 34.9 33.9 15.7 31 12.1 WNW 15 24 8 13 1008.6 1008.6 0.0
04/02:30pm 35.3 34.5 16.1 32 12.2 NNW 15 24 8 13 1008.7 1008.7 0.0
04/02:00pm 34.6 33.6 15.5 32 12.0 NW 15 24 8 13 1008.9 1008.9 0.0
04/01:30pm 34.5 34.2 16.4 34 11.5 NNW 13 20 7 11 1009.2 1009.2 0.0
04/01:00pm 33.5 33.5 17.2 37 10.4 NNE 13 20 7 11 1009.6 1009.6 0.0
04/12:30pm 33.1 32.6 16.0 35 10.7 NNE 13 20 7 11 1009.9 1009.9 0.0
04/12:00pm 33.4 32.9 14.9 32 11.4 N 11 17 6 9 1010.5 1010.5 0.0
04/11:30am 33.8 33.9 13.8 30 12.2 NNW 6 9 3 5 1010.9 1010.9 0.0
04/11:00am 32.8 33.1 14.4 33 11.3 NE 6 9 3 5 1011.7 1011.7 0.0
04/10:30am 31.8 33.7 15.7 37 10.0 CALM 0 4 0 2 1012.1 1012.1 0.0
04/10:00am 31.3 32.4 15.7 39 9.7 NE 4 7 2 4 1012.4 1012.4 0.0
04/09:30am 29.9 32.2 16.7 45 8.3 CALM 0 6 0 3 1012.5 1012.5 0.0
04/09:00am 29.0 30.0 16.9 48 7.6 SW 7 9 4 5 1012.5 1012.5 0.0
04/08:30am 27.6 29.1 18.0 55 6.1 SW 7 9 4 5 1012.3 1012.3 0.0
04/08:00am 25.8 28.6 18.0 62 4.9 CALM 0 0 0 0 1012.1 1012.1 0.0
04/07:30am 25.3 27.4 18.2 64 4.5 W 4 7 2 4 1011.8 1011.8 0.0
04/07:00am 23.8 25.4 18.2 71 3.5 WNW 7 9 4 5 1011.6 1011.6 0.0
04/06:30am 22.7 24.3 17.8 74 3.0 WNW 6 7 3 4 1011.3 1011.3 0.0
04/06:00am 22.0 24.5 17.2 74 3.0 CALM 0 0 0 0 1011.2 1011.2 0.0
04/05:30am 22.3 24.8 17.2 73 3.1 CALM 0 4 0 2 1011.0 1011.0 0.0
04/05:00am 22.7 23.9 17.4 72 3.3 SW 7 9 4 5 1010.9 1010.9 0.0
04/04:30am 23.8 24.6 18.2 71 3.5 SW 11 11 6 6 1011.1 1011.1 0.0
04/04:00am 24.3 25.2 18.5 70 3.7 SSW 11 13 6 7 1011.1 1011.1 0.0
04/03:30am 25.0 26.1 18.9 69 3.9 SW 11 13 6 7 1011.2 1011.2 0.0
04/03:00am 25.0 26.3 19.4 71 3.6 WSW 11 13 6 7 1011.2 1011.2 0.0
04/02:30am 25.3 26.3 19.4 70 3.8 WSW 13 15 7 8 1011.3 1011.3 0.0
04/02:00am 25.4 26.6 19.8 71 3.6 SW 13 15 7 8 1011.4 1011.4 0.0
04/01:30am 25.3 26.9 19.9 72 3.5 SW 11 17 6 9 1011.6 1011.6 0.0
04/01:00am 25.8 26.7 20.1 71 3.7 SW 15 19 8 10 1011.5 1011.5 0.0
04/12:30am 26.3 27.4 20.4 70 3.9 WSW 15 19 8 10 1011.6 1011.6 0.0
04/12:00am 26.4 27.5 20.5 70 3.9 WSW 15 17 8 9 1011.6 1011.6 0.0
 
Date/Time
WST
Temp
°C
App
Temp
°C
Dew
Point
Rel
Hum
%
Delta-T
°C
Wind Press
QNH
hPa
Press
MSL
hPa
Rain
since 9 am
mm
Dir
 
Spd
km/h
Gust
km/h
Spd
kts
Gust
kts
03/11:30pm 25.6 27.6 19.9 70 3.7 W 9 11 5 6 1011.6 1011.6 0.0
03/11:00pm 26.0 28.0 19.9 69 4.0 W 9 13 5 7 1011.8 1011.8 0.0
03/10:30pm 26.3 28.2 19.7 67 4.3 W 9 13 5 7 1012.0 1012.0 0.0
03/10:00pm 26.1 27.1 17.7 60 5.3 WSW 9 13 5 7 1012.0 1012.0 0.0
03/09:30pm 26.3 26.9 17.6 58 5.5 W 11 11 6 6 1012.1 1012.1 0.0
03/09:00pm 26.7 28.1 17.8 58 5.6 W 7 9 4 5 1012.1 1012.1 0.0
03/08:30pm 26.8 28.1 17.0 55 6.1 W 6 7 3 4 1012.2 1012.2 0.0
03/08:00pm 27.1 27.8 16.1 51 6.8 WNW 7 9 4 5 1011.9 1011.9 0.0
03/07:30pm 27.2 27.5 15.9 50 6.9 NW 9 11 5 6 1011.5 1011.5 0.0
03/07:00pm 28.2 29.1 16.5 49 7.3 NW 7 9 4 5 1011.3 1011.3 0.0
03/06:30pm 28.8 28.6 16.7 48 7.6 NNW 13 17 7 9 1010.9 1010.9 0.0
03/06:00pm 29.6 29.2 16.1 44 8.4 NNW 13 17 7 9 1010.7 1010.7 0.0
03/05:30pm 30.6 29.6 15.5 40 9.3 NNW 15 19 8 10 1010.4 1010.4 0.0
03/05:00pm 31.0 29.2 15.4 38 9.6 NNW 19 22 10 12 1010.3 1010.3 0.0
03/04:30pm 33.0 30.4 13.1 30 12.0 N 19 24 10 13 1010.0 1010.0 0.0
03/04:00pm 34.8 32.2 9.3 21 14.6 NNE 13 17 7 9 1009.8 1009.8 0.0
03/03:30pm 34.7 31.9 9.9 22 14.3 NNE 15 20 8 11 1010.1 1010.1 0.0
03/03:00pm 34.7 31.3 9.2 21 14.6 NNE 17 22 9 12 1010.0 1010.0 0.0
03/02:30pm 34.9 31.5 9.3 21 14.6 NNE 17 22 9 12 1010.3 1010.3 0.0
03/02:00pm 34.2 30.8 10.7 24 13.7 NNE 19 28 10 15 1010.3 1010.3 0.0
03/01:30pm 33.9 29.6 7.0 19 14.8 NNE 19 24 10 13 1010.9 1010.9 0.0
03/01:00pm 35.0 30.7 9.4 21 14.7 NE 22 30 12 16 1011.0 1011.0 0.0
03/12:30pm 34.3 29.5 8.8 21 14.4 NE 24 32 13 17 1011.6 1011.6 0.0
03/12:00pm 33.8 29.1 9.1 22 14.0 NE 24 30 13 16 1012.0 1012.0 0.0
03/11:30am 34.2 30.3 10.7 24 13.7 NE 22 33 12 18 1012.5 1012.5 0.0
03/11:00am 33.3 29.0 10.6 25 13.2 ENE 24 32 13 17 1013.0 1013.0 0.0
03/10:30am 33.2 29.3 12.2 28 12.5 ENE 24 33 13 18 1013.4 1013.4 0.0
03/10:00am 32.0 29.4 15.9 38 10.1 ENE 24 32 13 17 1013.7 1013.6 0.0
03/09:30am 30.3 30.2 20.0 54 6.8 E 20 28 11 15 1013.8 1013.7 0.0
03/09:00am 29.3 28.9 19.0 53 6.7 ESE 19 22 10 12 1013.8 1013.7 0.0
03/08:30am 27.5 29.2 20.1 64 4.8 SE 11 15 6 8 1013.7 1013.6 0.0
03/08:00am 24.9 28.0 21.4 81 2.3 SSE 7 9 4 5 1013.7 1013.6 0.0
03/07:30am 23.0 25.5 21.1 89 1.2 S 9 13 5 7 1013.6 1013.5 0.0
03/07:00am 21.0 24.2 18.8 87 1.4 CALM 0 0 0 0 1013.1 1013.1 0.0
03/06:30am 21.1 23.2 19.0 88 1.3 SSW 6 6 3 3 1012.9 1012.9 0.0
03/06:00am 21.8 24.2 19.7 88 1.3 WNW 6 9 3 5 1012.6 1012.6 0.0
03/05:30am 21.5 24.8 19.1 86 1.5 CALM 0 0 0 0 1012.5 1012.5 0.0
03/05:00am 21.8 25.3 19.5 87 1.5 CALM 0 6 0 3 1012.3 1012.3 0.0
03/04:30am 22.3 25.0 20.2 88 1.4 S 6 7 3 4 1012.2 1012.2 0.0
03/04:00am 22.1 23.9 19.6 86 1.6 S 9 11 5 6 1012.1 1012.1 0.0
03/03:30am 24.1 26.6 21.0 83 2.0 SW 9 11 5 6 1011.8 1011.8 0.0
03/03:00am 25.2 27.3 21.7 81 2.3 W 13 17 7 9 1011.7 1011.7 0.0
03/02:30am 25.1 27.0 22.0 83 2.1 WSW 15 19 8 10 1011.7 1011.7 0.0
03/02:00am 24.9 27.8 21.8 83 2.1 WSW 9 11 5 6 1012.1 1012.1 0.0
03/01:30am 25.0 27.2 21.9 83 2.1 SW 13 15 7 8 1012.3 1012.3 0.0
03/01:00am 25.0 27.6 21.9 83 2.1 SW 11 13 6 7 1012.6 1012.6 0.0
03/12:30am 24.2 26.8 20.5 80 2.4 SW 7 9 4 5 1012.7 1012.7 0.0
03/12:00am 24.8 27.0 20.5 77 2.8 SW 9 13 5 7 1012.8 1012.8 0.0
 
Date/Time
WST
Temp
°C
App
Temp
°C
Dew
Point
Rel
Hum
%
Delta-T
°C
Wind Press
QNH
hPa
Press
MSL
hPa
Rain
since 9 am
mm
Dir
 
Spd
km/h
Gust
km/h
Spd
kts
Gust
kts
02/11:30pm 25.6 28.3 21.3 77 2.8 SW 9 13 5 7 1012.8 1012.8 0.0
02/11:00pm 26.2 28.5 21.4 75 3.2 WSW 11 15 6 8 1013.0 1013.0 0.0
02/10:30pm 26.1 28.6 21.1 74 3.3 WSW 9 11 5 6 1012.9 1012.9 0.0
02/10:00pm 26.2 28.6 20.8 72 3.6 W 9 11 5 6 1013.0 1013.0 0.0
02/09:30pm 26.7 28.9 21.2 72 3.6 W 11 13 6 7 1013.0 1013.0 0.0
02/09:00pm 27.1 29.5 21.6 72 3.7 W 11 13 6 7 1013.1 1013.1 0.0
02/08:30pm 27.4 30.1 22.1 73 3.6 W 11 15 6 8 1013.0 1013.0 0.0
02/08:00pm 27.7 29.4 21.7 70 4.0 WNW 15 19 8 10 1012.8 1012.8 0.0
02/07:30pm 28.0 30.2 21.8 69 4.2 WNW 13 20 7 11 1012.7 1012.7 0.0
02/07:00pm 28.2 30.2 22.2 70 4.0 NW 15 19 8 10 1012.4 1012.4 0.0
02/06:30pm 28.6 30.5 22.1 68 4.4 NW 15 19 8 10 1012.2 1012.2 0.0
02/06:00pm 29.1 30.0 21.6 64 5.0 NW 19 20 10 11 1011.9 1011.9 0.0
02/05:30pm 29.7 30.4 21.6 61 5.4 NW 20 26 11 14 1011.8 1011.8 0.0
02/05:00pm 30.9 31.7 21.7 58 6.2 NNW 20 24 11 13 1011.6 1011.6 0.0
02/04:30pm 31.0 31.5 21.2 56 6.6 NW 20 26 11 14 1011.2 1011.2 0.0
02/04:00pm 32.2 33.0 21.7 54 7.1 N 20 28 11 15 1011.3 1011.3 0.0
02/03:30pm 32.2 32.7 21.1 52 7.5 N 20 26 11 14 1011.2 1011.2 0.0
02/03:00pm 32.5 33.1 21.0 50 7.7 N 19 24 10 13 1011.0 1011.0 0.0
02/02:30pm 32.7 32.9 20.2 47 8.3 N 19 22 10 12 1010.9 1010.9 0.0
02/02:00pm 32.8 33.3 20.0 47 8.5 N 17 26 9 14 1011.1 1011.1 0.0
02/01:30pm 33.1 33.5 19.9 45 8.7 N 17 26 9 14 1011.4 1011.4 0.0
02/01:00pm 32.8 33.6 21.3 50 7.8 NNE 19 28 10 15 1011.9 1011.9 0.0
02/12:30pm 32.6 33.5 21.5 52 7.5 NNE 19 28 10 15 1012.4 1012.4 0.0
02/12:00pm 33.2 35.6 19.7 45 8.9 NNE 6 11 3 6 1012.6 1012.6 0.0
02/11:30am 32.1 34.7 20.4 50 7.8 WNW 7 13 4 7 1013.1 1013.1 0.0
02/11:00am 30.6 32.6 19.9 52 7.0 WSW 9 15 5 8 1013.8 1013.7 0.0
02/10:30am 30.7 33.7 21.2 57 6.4 WSW 7 11 4 6 1014.3 1014.2 0.0
02/10:00am 28.9 31.6 20.6 61 5.5 WSW 7 13 4 7 1014.5 1014.4 0.0
02/09:30am 28.3 31.3 21.3 65 4.7 SSE 7 13 4 7 1014.5 1014.4 0.0
02/09:00am 27.8 31.3 21.8 70 4.0 SSW 6 11 3 6 1014.2 1014.1 0.0
02/08:30am 27.1 30.0 21.8 73 3.5 SSW 9 13 5 7 1013.9 1013.8 0.0
02/08:00am 26.2 29.4 21.6 76 3.1 SSE 7 11 4 6 1014.0 1013.9 0.0
02/07:30am 24.9 29.1 21.0 79 2.6 CALM 0 7 0 4 1013.8 1013.7 0.0
02/07:00am 24.3 28.5 21.0 82 2.2 CALM 0 0 0 0 1013.4 1013.4 0.0
02/06:30am 23.4 26.5 20.3 83 2.0 SE 4 6 2 3 1012.9 1012.9 0.0
02/06:00am 23.8 25.5 20.9 84 1.9 SSW 13 15 7 8 1012.5 1012.5 0.0
02/05:30am 23.0 25.2 20.3 85 1.7 SW 9 15 5 8 1012.4 1012.4 0.0
02/05:00am 23.1 25.4 20.6 86 1.6 SW 9 11 5 6 1012.2 1012.2 0.0
02/04:30am 22.5 24.5 19.9 85 1.7 SW 9 9 5 5 1012.2 1012.2 0.0
02/04:00am 22.6 24.7 19.4 82 2.0 SW 7 7 4 4 1012.0 1012.0 0.0
02/03:30am 23.3 25.1 20.4 84 1.9 SW 11 11 6 6 1011.8 1011.8 0.0
02/03:00am 23.5 25.7 20.4 83 2.0 SW 9 11 5 6 1011.7 1011.7 0.0
02/02:30am 23.0 24.8 19.6 81 2.2 WSW 9 11 5 6 1012.1 1012.1 0.0
02/02:00am 23.9 26.8 20.6 82 2.2 W 6 7 3 4 1012.2 1012.2 0.0
02/01:30am 24.3 27.0 20.6 80 2.4 WNW 7 7 4 4 1012.5 1012.5 0.0
02/01:00am 24.8 27.3 21.1 80 2.4 WNW 9 11 5 6 1012.7 1012.7 0.0
02/12:30am 24.6 27.3 20.7 79 2.6 NW 7 9 4 5 1013.0 1013.0 0.0
02/12:00am 24.5 26.9 20.8 80 2.4 NNW 9 9 5 5 1013.1 1013.1 0.0
 
Date/Time
WST
Temp
°C
App
Temp
°C
Dew
Point
Rel
Hum
%
Delta-T
°C
Wind Press
QNH
hPa
Press
MSL
hPa
Rain
since 9 am
mm
Dir
 
Spd
km/h
Gust
km/h
Spd
kts
Gust
kts
01/11:30pm 24.8 27.9 21.1 80 2.4 NNW 6 7 3 4 1013.1 1013.1 0.0
01/11:00pm 24.9 27.7 20.8 78 2.7 NNW 7 9 4 5 1013.2 1013.2 0.0
01/10:30pm 25.2 27.9 20.7 76 2.9 WNW 7 9 4 5 1013.1 1013.1 0.0
01/10:00pm 25.2 27.5 20.7 76 2.9 NNW 9 11 5 6 1013.1 1013.1 0.0

Other Formats:

Comma delimited format used in spreadsheet applications
http://www.bom.gov.au/fwo/IDW60801/IDW60801.94308.axf

JavaScript Object Notation format (JSON) in row-major order
http://www.bom.gov.au/fwo/IDW60801/IDW60801.94308.json